createdAt,value
2019-04-14T00:00:31.495Z,26.37
2019-04-14T00:03:17.604Z,23.87
2019-04-14T00:05:47.704Z,22.07
2019-04-14T00:08:16.180Z,26.27
2019-04-14T00:10:44.605Z,22.63
2019-04-14T00:13:13.322Z,23.77
2019-04-14T00:15:45.146Z,21.60
2019-04-14T00:18:11.913Z,22.93
2019-04-14T00:20:40.522Z,23.80
2019-04-14T00:23:08.919Z,24.77
2019-04-14T00:25:37.362Z,22.97
2019-04-14T00:28:05.986Z,23.93
2019-04-14T00:30:34.433Z,22.97
2019-04-14T00:33:07.046Z,25.00
2019-04-14T00:35:40.628Z,22.30
2019-04-14T00:38:19.733Z,22.60
2019-04-14T00:41:07.172Z,26.40
2019-04-14T00:43:37.478Z,23.93
2019-04-14T00:46:08.011Z,23.57
2019-04-14T00:48:36.719Z,23.63
2019-04-14T00:51:05.214Z,22.90
2019-04-14T00:53:33.938Z,23.87
2019-04-14T00:56:03.972Z,24.30
2019-04-14T00:58:32.518Z,22.80
2019-04-14T01:01:00.986Z,23.20
2019-04-14T01:03:29.450Z,26.30
2019-04-14T01:05:58.932Z,23.50
2019-04-14T01:08:27.530Z,24.00
2019-04-14T01:10:56.254Z,24.07
2019-04-14T01:13:24.765Z,24.17
2019-04-14T01:16:01.738Z,23.47
2019-04-14T01:18:23.424Z,24.47
2019-04-14T01:20:51.859Z,24.03
2019-04-14T01:23:21.425Z,23.40
2019-04-14T01:25:50.140Z,23.57
2019-04-14T01:28:18.628Z,23.17
2019-04-14T01:30:48.044Z,24.37
2019-04-14T01:33:16.769Z,24.60
2019-04-14T01:35:45.219Z,23.50
2019-04-14T01:38:14.677Z,25.60
2019-04-14T01:40:44.465Z,23.77
2019-04-14T01:43:13.018Z,23.90
2019-04-14T01:45:42.447Z,24.00
2019-04-14T01:48:10.979Z,24.43
2019-04-14T01:50:41.034Z,23.23
2019-04-14T01:53:27.187Z,24.53
2019-04-14T01:55:57.265Z,23.80
2019-04-14T01:58:27.332Z,26.40
2019-04-14T02:00:57.629Z,24.40
2019-04-14T02:03:26.070Z,27.00
2019-04-14T02:05:54.528Z,24.00
2019-04-14T02:08:24.030Z,25.27
2019-04-14T02:10:52.766Z,25.47
2019-04-14T02:13:22.448Z,24.83
2019-04-14T02:15:51.308Z,23.40
2019-04-14T02:18:20.905Z,25.03
2019-04-14T02:20:49.418Z,25.17
2019-04-14T02:23:19.147Z,24.20
2019-04-14T02:25:49.245Z,26.10
2019-04-14T02:28:17.932Z,23.70
2019-04-14T02:30:59.193Z,25.07
2019-04-14T02:41:18.836Z,26.30
2019-04-14T02:46:10.001Z,27.73
2019-04-14T02:53:49.838Z,25.37
2019-04-14T02:56:16.027Z,23.93
2019-04-14T02:58:56.247Z,25.77
2019-04-14T03:03:43.065Z,25.20
2019-04-14T03:06:12.615Z,27.60
2019-04-14T03:08:55.091Z,26.03
2019-04-14T03:11:20.794Z,27.70
2019-04-14T03:13:45.527Z,25.73
2019-04-14T03:18:54.339Z,26.83
2019-04-14T03:21:34.380Z,26.57
2019-04-14T03:26:54.146Z,26.50
2019-04-14T03:29:51.987Z,25.97
2019-04-14T03:32:23.317Z,26.77
2019-04-14T03:34:42.267Z,26.63
2019-04-14T03:37:30.683Z,26.53
2019-04-14T03:42:08.701Z,24.87
2019-04-14T03:44:42.044Z,27.07
2019-04-14T03:47:10.945Z,28.60
2019-04-14T03:49:42.412Z,27.07
2019-04-14T03:52:15.326Z,26.83
2019-04-14T03:54:33.148Z,25.63
2019-04-14T03:56:51.642Z,27.87
2019-04-14T03:59:20.164Z,25.23
2019-04-14T04:01:49.950Z,26.07
2019-04-14T04:04:18.522Z,26.57
2019-04-14T04:06:47.029Z,26.90
2019-04-14T04:09:15.581Z,28.03
2019-04-14T04:11:44.014Z,26.47
2019-04-14T04:14:12.457Z,28.40
2019-04-14T04:16:48.399Z,26.33
2019-04-14T04:19:19.774Z,27.83
2019-04-14T04:22:06.610Z,26.90
2019-04-14T04:24:39.677Z,26.27
2019-04-14T04:27:24.787Z,25.43
2019-04-14T04:29:55.042Z,26.37
2019-04-14T04:32:41.175Z,27.30
2019-04-14T04:35:11.338Z,26.80
2019-04-14T04:37:50.170Z,26.43
2019-04-14T04:40:26.845Z,25.77
2019-04-14T04:42:55.328Z,29.30
2019-04-14T04:45:23.730Z,26.03
2019-04-14T04:47:53.482Z,27.00
2019-04-14T04:50:21.959Z,26.77
2019-04-14T04:52:51.565Z,26.97
2019-04-14T04:55:20.390Z,25.60
2019-04-14T04:57:48.824Z,28.87
2019-04-14T05:00:17.873Z,26.90
2019-04-14T05:02:46.447Z,27.60
2019-04-14T05:05:53.569Z,24.97
2019-04-14T05:08:22.068Z,27.47
2019-04-14T05:10:54.648Z,26.33
2019-04-14T05:13:24.802Z,27.13
2019-04-14T05:15:55.271Z,27.13
2019-04-14T05:18:24.687Z,27.57
2019-04-14T05:20:53.352Z,26.70
2019-04-14T05:23:21.865Z,27.80
2019-04-14T05:29:31.910Z,27.50
2019-04-14T05:32:00.393Z,27.00
2019-04-14T05:34:28.846Z,29.07
2019-04-14T05:36:58.498Z,27.53
2019-04-14T05:39:26.977Z,27.13
2019-04-14T05:42:05.912Z,27.27
2019-04-14T05:44:25.582Z,26.83
2019-04-14T05:46:54.030Z,26.73
2019-04-14T05:49:31.715Z,27.00
2019-04-14T05:51:52.778Z,28.10
2019-04-14T05:54:21.198Z,27.27
2019-04-14T05:56:49.623Z,28.90
2019-04-14T05:59:18.106Z,29.97
2019-04-14T06:01:46.571Z,27.17
2019-04-14T06:04:15.669Z,27.63
2019-04-14T06:06:44.147Z,27.47
2019-04-14T06:09:12.595Z,27.17
2019-04-14T06:11:41.036Z,28.17
2019-04-14T06:14:09.674Z,29.20
2019-04-14T06:16:38.112Z,28.00
2019-04-14T06:19:06.537Z,27.63
2019-04-14T06:21:35.119Z,28.17
2019-04-14T06:24:03.545Z,28.17
2019-04-14T06:26:31.965Z,30.33
2019-04-14T06:29:00.445Z,26.30
2019-04-14T06:31:36.518Z,27.10
2019-04-14T06:34:06.742Z,27.20
2019-04-14T06:36:42.584Z,29.27
2019-04-14T06:39:15.263Z,28.73
2019-04-14T06:41:43.680Z,28.00
2019-04-14T06:44:12.105Z,27.50
2019-04-14T06:46:40.747Z,28.57
2019-04-14T06:49:09.170Z,28.87
2019-04-14T06:51:37.578Z,28.07
2019-04-14T06:54:06.075Z,28.03
2019-04-14T06:56:34.500Z,30.00
2019-04-14T06:59:02.923Z,30.23
2019-04-14T07:01:31.361Z,28.50
2019-04-14T07:03:59.773Z,28.57
2019-04-14T07:06:28.317Z,29.43
2019-04-14T07:08:56.789Z,29.60
2019-04-14T07:11:25.211Z,30.07
2019-04-14T07:13:53.630Z,28.30
2019-04-14T07:16:22.248Z,30.60
2019-04-14T07:18:50.671Z,30.63
2019-04-14T07:21:19.109Z,29.07
2019-04-14T07:23:47.693Z,29.53
2019-04-14T07:26:16.118Z,29.97
2019-04-14T07:28:56.126Z,28.90
2019-04-14T07:31:25.234Z,28.90
2019-04-14T07:33:57.842Z,27.63
2019-04-14T07:36:30.589Z,28.87
2019-04-14T07:39:16.530Z,26.75
2019-04-14T07:42:01.846Z,29.95
2019-04-14T07:44:46.810Z,28.52
2019-04-14T07:47:19.817Z,27.40
2019-04-14T07:49:55.800Z,26.97
2019-04-14T07:52:28.884Z,26.85
2019-04-14T07:55:01.768Z,26.12
2019-04-14T07:57:48.037Z,25.08
2019-04-14T08:00:30.119Z,26.00
2019-04-14T08:03:00.881Z,26.20
2019-04-14T08:05:30.941Z,25.77
2019-04-14T08:07:59.370Z,26.27
2019-04-14T08:10:27.821Z,27.25
2019-04-14T08:12:56.247Z,25.60
2019-04-14T08:15:24.662Z,25.15
2019-04-14T08:17:53.157Z,25.12
2019-04-14T08:20:27.653Z,23.55
2019-04-14T08:22:51.726Z,24.87
2019-04-14T08:25:20.239Z,23.77
2019-04-14T08:27:48.653Z,25.05
2019-04-14T08:30:17.154Z,22.13
2019-04-14T08:32:45.760Z,23.02
2019-04-14T08:35:14.428Z,22.98
2019-04-14T08:37:42.871Z,22.60
2019-04-14T08:40:12.124Z,23.52
2019-04-14T08:42:44.822Z,22.75
2019-04-14T08:45:26.543Z,22.80
2019-04-14T08:47:56.610Z,22.40
2019-04-14T08:50:38.714Z,23.38
2019-04-14T08:53:10.546Z,23.87
2019-04-14T08:55:40.625Z,23.22
2019-04-14T08:58:10.670Z,23.15
2019-04-14T09:00:43.674Z,23.38
2019-04-14T09:03:13.810Z,23.15
2019-04-14T09:05:43.895Z,22.02
2019-04-14T09:08:20.098Z,22.77
2019-04-14T09:11:01.937Z,22.05
2019-04-14T09:13:30.414Z,21.40
2019-04-14T09:15:58.841Z,23.22
2019-04-14T09:18:27.253Z,21.62
2019-04-14T09:20:55.754Z,23.25
2019-04-14T09:23:24.183Z,23.70
2019-04-14T09:25:52.622Z,22.77
2019-04-14T09:28:21.122Z,21.15
2019-04-14T09:30:49.642Z,22.30
2019-04-14T09:33:18.110Z,20.95
2019-04-14T09:35:46.618Z,22.27
2019-04-14T09:38:15.100Z,19.60
2019-04-14T09:40:43.527Z,21.48
2019-04-14T09:43:12.047Z,21.85
2019-04-14T09:45:40.547Z,22.58
2019-04-14T09:48:08.967Z,20.72
2019-04-14T09:50:37.476Z,20.10
2019-04-14T09:53:05.900Z,20.35
2019-04-14T09:55:34.319Z,20.50
2019-04-14T09:58:02.806Z,18.52
2019-04-14T10:00:32.879Z,19.87
2019-04-14T10:03:01.387Z,19.77
2019-04-14T10:05:29.867Z,20.27
2019-04-14T10:07:58.294Z,21.17
2019-04-14T10:10:26.790Z,18.87
2019-04-14T10:12:55.310Z,18.23
2019-04-14T10:15:23.738Z,18.85
2019-04-14T10:17:52.162Z,17.27
2019-04-14T10:20:20.713Z,18.67
2019-04-14T10:22:49.144Z,18.92
2019-04-14T10:25:17.566Z,19.00
2019-04-14T10:27:46.162Z,17.85
2019-04-14T10:30:14.942Z,16.77
2019-04-14T10:32:43.370Z,18.23
2019-04-14T10:35:11.894Z,18.90
2019-04-14T10:37:40.312Z,17.35
2019-04-14T10:40:09.983Z,17.02
2019-04-14T10:42:38.608Z,16.90
2019-04-14T10:45:07.369Z,18.30
2019-04-14T10:47:35.794Z,16.67
2019-04-14T10:50:05.956Z,20.15
2019-04-14T10:52:34.373Z,19.60
2019-04-14T10:55:02.965Z,17.65
2019-04-14T10:57:32.308Z,17.75
2019-04-14T11:00:00.723Z,18.32
2019-04-14T11:02:29.165Z,17.02
2019-04-14T11:04:57.607Z,18.67
2019-04-14T11:07:29.579Z,15.83
2019-04-14T11:09:58.080Z,18.25
2019-04-14T11:12:26.723Z,18.42
2019-04-14T11:14:55.154Z,18.82
2019-04-14T11:17:23.645Z,17.77
2019-04-14T11:19:52.226Z,19.07
2019-04-14T11:22:20.641Z,18.30
2019-04-14T11:24:49.080Z,20.05
2019-04-14T11:27:17.818Z,19.17
2019-04-14T11:29:46.248Z,18.20
2019-04-14T11:32:32.350Z,20.17
2019-04-14T11:35:21.151Z,18.25
2019-04-14T11:37:56.858Z,19.05
2019-04-14T11:40:34.711Z,19.50
2019-04-14T11:43:02.803Z,19.27
2019-04-14T11:45:31.277Z,21.82
2019-04-14T11:47:59.726Z,19.75
2019-04-14T11:50:28.226Z,22.20
2019-04-14T11:52:56.649Z,19.20
2019-04-14T11:55:25.078Z,19.52
2019-04-14T11:57:53.589Z,18.75
2019-04-14T12:00:32.451Z,18.73
2019-04-14T12:03:02.534Z,18.23
2019-04-14T12:05:48.702Z,19.87
2019-04-14T12:08:34.850Z,19.10
2019-04-14T12:11:03.284Z,19.80
2019-04-14T12:13:31.703Z,19.35
2019-04-14T12:16:00.154Z,18.75
2019-04-14T12:18:28.577Z,18.05
2019-04-14T12:20:57.010Z,20.10
2019-04-14T12:23:25.533Z,18.57
2019-04-14T12:26:04.720Z,19.27
2019-04-14T12:28:24.102Z,18.57
2019-04-14T12:30:53.240Z,19.92
2019-04-14T12:33:21.794Z,17.67
2019-04-14T12:35:50.224Z,18.70
2019-04-14T12:38:18.843Z,18.73
2019-04-14T12:40:49.178Z,18.15
2019-04-14T12:43:25.362Z,19.17
2019-04-14T12:46:11.367Z,20.05
2019-04-14T12:48:41.442Z,19.70
2019-04-14T12:51:14.108Z,18.57
2019-04-14T12:53:42.649Z,18.42
2019-04-14T12:56:11.538Z,17.98
2019-04-14T12:58:50.434Z,17.82
2019-04-14T13:01:20.554Z,18.32
2019-04-14T13:03:48.973Z,18.98
2019-04-14T13:06:17.403Z,20.02
2019-04-14T13:08:46.168Z,19.42
2019-04-14T13:11:14.587Z,17.75
2019-04-14T13:13:43.016Z,18.87
2019-04-14T13:16:11.538Z,18.73
2019-04-14T13:18:40.039Z,17.05
2019-04-14T13:21:08.477Z,17.98
2019-04-14T13:23:37.074Z,18.12
2019-04-14T13:26:05.536Z,18.32
2019-04-14T13:28:34.026Z,17.32
2019-04-14T13:31:02.709Z,17.87
2019-04-14T13:33:31.197Z,17.25
2019-04-14T13:35:59.724Z,16.42
2019-04-14T13:38:28.293Z,17.60
2019-04-14T13:40:56.721Z,20.05
2019-04-14T13:43:25.150Z,17.37
2019-04-14T13:45:53.659Z,18.35
2019-04-14T13:48:22.149Z,17.85
2019-04-14T13:50:50.574Z,16.93
2019-04-14T13:53:19.214Z,17.73
2019-04-14T13:55:47.909Z,17.50
2019-04-14T13:58:16.327Z,16.42
2019-04-14T14:00:44.870Z,16.55
2019-04-14T14:03:13.299Z,16.87
2019-04-14T14:05:43.577Z,16.95
2019-04-14T14:08:11.903Z,16.52
2019-04-14T14:10:40.325Z,17.73
2019-04-14T14:13:13.142Z,16.45
2019-04-14T14:15:58.488Z,18.32
2019-04-14T14:18:28.550Z,17.17
2019-04-14T14:21:10.990Z,17.73
2019-04-14T14:23:49.889Z,17.57
2019-04-14T14:26:25.817Z,17.17
2019-04-14T14:28:54.253Z,17.52
2019-04-14T14:31:22.754Z,18.02
2019-04-14T14:33:51.312Z,17.73
2019-04-14T14:36:19.773Z,18.87
2019-04-14T14:38:48.207Z,17.27
2019-04-14T14:41:17.492Z,18.25
2019-04-14T14:43:45.929Z,17.65
2019-04-14T14:46:25.185Z,18.20
2019-04-14T14:48:55.298Z,17.70
2019-04-14T14:51:41.295Z,17.12
2019-04-14T14:54:09.945Z,18.35
2019-04-14T14:56:38.447Z,17.25
2019-04-14T14:59:06.952Z,17.50
2019-04-14T15:01:35.555Z,17.98
2019-04-14T15:04:04.060Z,17.20
2019-04-14T15:06:32.486Z,18.10
2019-04-14T15:09:00.915Z,16.10
2019-04-14T15:11:29.321Z,17.55
2019-04-14T15:13:57.771Z,18.23
2019-04-14T15:16:26.221Z,18.05
2019-04-14T15:18:54.642Z,17.98
2019-04-14T15:21:23.079Z,18.35
2019-04-14T15:23:51.589Z,18.30
2019-04-14T15:26:20.007Z,17.80
2019-04-14T15:28:48.446Z,19.02
2019-04-14T15:31:16.936Z,19.48
2019-04-14T15:33:45.368Z,18.92
2019-04-14T15:36:13.803Z,18.15
2019-04-14T15:38:42.467Z,18.03
2019-04-14T15:41:11.010Z,18.00
2019-04-14T15:43:39.522Z,17.70
2019-04-14T15:46:08.017Z,17.15
2019-04-14T15:48:36.437Z,17.77
2019-04-14T15:51:04.880Z,16.02
2019-04-14T15:53:38.307Z,17.48
2019-04-14T15:56:04.138Z,17.70
2019-04-14T15:58:36.847Z,16.73
2019-04-14T16:01:22.153Z,18.25
2019-04-14T16:03:52.219Z,17.37
2019-04-14T16:06:27.971Z,17.85
2019-04-14T16:08:58.059Z,18.50
2019-04-14T16:11:44.281Z,18.35
2019-04-14T16:14:17.110Z,18.20
2019-04-14T16:17:03.646Z,17.57
2019-04-14T16:19:33.717Z,18.92
2019-04-14T16:22:02.140Z,18.40
2019-04-14T16:24:30.764Z,17.70
2019-04-14T16:27:03.751Z,18.47
2019-04-14T16:29:33.826Z,18.30
2019-04-14T16:32:04.102Z,18.67
2019-04-14T16:34:34.239Z,18.50
2019-04-14T16:37:02.679Z,17.87
2019-04-14T16:39:31.479Z,17.85
2019-04-14T16:41:59.909Z,18.35
2019-04-14T16:44:28.424Z,19.47
2019-04-14T16:46:56.878Z,19.70
2019-04-14T16:49:25.318Z,20.80
2019-04-14T16:51:55.454Z,20.23
2019-04-14T16:54:25.598Z,20.20
2019-04-14T16:56:58.810Z,20.43
2019-04-14T16:59:27.251Z,20.83
2019-04-14T17:01:55.760Z,19.77
2019-04-14T17:04:24.219Z,21.17
2019-04-14T17:06:52.630Z,20.77
2019-04-14T17:09:21.514Z,20.10
2019-04-14T17:11:49.943Z,20.60
2019-04-14T17:14:20.015Z,19.80
2019-04-14T17:17:06.323Z,20.03
2019-04-14T17:19:39.033Z,21.40
2019-04-14T17:22:09.099Z,19.57
2019-04-14T17:24:44.806Z,19.93
2019-04-14T17:27:14.873Z,20.30
2019-04-14T17:29:47.485Z,19.03
2019-04-14T17:32:33.793Z,20.00
2019-04-14T17:35:07.293Z,18.97
2019-04-14T17:37:46.223Z,20.80
2019-04-14T17:40:19.006Z,19.57
2019-04-14T17:43:07.069Z,19.20
2019-04-14T17:45:45.849Z,20.03
2019-04-14T17:48:15.971Z,20.27
2019-04-14T17:50:58.038Z,19.53
2019-04-14T17:53:40.006Z,19.40
2019-04-14T17:56:25.186Z,19.70
2019-04-14T17:59:10.181Z,19.37
2019-04-14T18:01:56.107Z,20.00
2019-04-14T18:04:28.974Z,18.20
2019-04-14T18:07:01.536Z,19.83
2019-04-14T18:09:34.150Z,19.00
2019-04-14T18:12:04.208Z,19.07
2019-04-14T18:14:50.766Z,19.20
2019-04-14T18:17:35.646Z,19.20
2019-04-14T18:20:08.039Z,19.37
2019-04-14T18:24:57.629Z,19.87
2019-04-14T18:27:26.169Z,20.13
2019-04-14T18:29:58.762Z,18.83
2019-04-14T18:32:37.970Z,19.47
2019-04-14T18:35:08.090Z,20.50
2019-04-14T18:37:54.169Z,21.30
2019-04-14T18:40:26.807Z,20.53
2019-04-14T18:43:02.907Z,20.93
2019-04-14T18:45:43.036Z,21.67
2019-04-14T18:48:29.235Z,21.33
2019-04-14T18:51:11.205Z,20.87
2019-04-14T18:53:44.169Z,22.13
2019-04-14T18:56:14.239Z,21.93
2019-04-14T18:58:44.317Z,22.60
2019-04-14T19:01:14.438Z,23.27
2019-04-14T19:03:42.870Z,22.57
2019-04-14T19:06:11.278Z,23.23
2019-04-14T19:08:40.024Z,23.40
2019-04-14T19:11:12.962Z,23.00
2019-04-14T19:13:43.087Z,24.67
2019-04-14T19:16:13.218Z,24.07
2019-04-14T19:18:43.268Z,23.80
2019-04-14T19:21:13.327Z,25.13
2019-04-14T19:23:41.840Z,25.57
2019-04-14T19:26:10.357Z,25.07
2019-04-14T19:28:38.778Z,24.30
2019-04-14T19:31:07.318Z,26.13
2019-04-14T19:33:35.722Z,26.27
2019-04-14T19:36:04.138Z,26.20
2019-04-14T19:38:32.661Z,26.73
2019-04-14T19:41:01.072Z,27.97
2019-04-14T19:43:29.516Z,26.53
2019-04-14T19:45:58.122Z,27.83
2019-04-14T19:48:26.546Z,29.13
2019-04-14T19:50:54.967Z,27.77
2019-04-14T19:53:23.502Z,28.23
2019-04-14T19:55:51.940Z,31.00
2019-04-14T19:58:20.354Z,26.70
2019-04-14T20:00:48.929Z,30.27
2019-04-14T20:03:17.361Z,32.13
2019-04-14T20:05:45.799Z,28.43
2019-04-14T20:08:14.299Z,31.27
2019-04-14T20:10:42.731Z,32.20
2019-04-14T20:13:11.142Z,31.00
2019-04-14T20:15:59.600Z,31.10
2019-04-14T20:18:32.287Z,30.77
2019-04-14T20:21:02.349Z,28.97
2019-04-14T20:23:41.647Z,30.97
2019-04-14T20:26:14.466Z,29.10
2019-04-14T20:28:44.522Z,32.30
2019-04-14T20:31:17.470Z,30.57
2019-04-14T20:33:45.885Z,31.27
2019-04-14T20:36:14.323Z,35.27
2019-04-14T20:38:42.866Z,33.13
2019-04-14T20:41:11.294Z,32.60
2019-04-14T20:43:39.730Z,32.20
2019-04-14T20:46:08.177Z,33.40
2019-04-14T20:48:36.666Z,34.90
2019-04-14T20:51:05.254Z,33.27
2019-04-14T20:53:33.911Z,35.30
2019-04-14T20:58:43.876Z,33.30
2019-04-14T21:01:13.682Z,34.97
2019-04-14T21:03:58.701Z,35.00
2019-04-14T21:06:45.323Z,35.73
2019-04-14T21:09:18.257Z,35.27
2019-04-14T21:12:06.345Z,35.60
2019-04-14T21:14:45.021Z,35.40
2019-04-14T21:17:20.645Z,35.50
2019-04-14T21:20:02.813Z,36.00
2019-04-14T21:22:38.622Z,36.20
2019-04-14T21:25:09.010Z,35.63
2019-04-14T21:27:39.062Z,36.23
2019-04-14T21:30:09.670Z,37.03
2019-04-14T21:32:42.570Z,36.73
2019-04-14T21:35:28.930Z,38.50
2019-04-14T21:37:59.063Z,36.70
2019-04-14T21:40:47.046Z,38.87
2019-04-14T21:43:15.717Z,39.40
2019-04-14T21:45:44.149Z,37.40
2019-04-14T21:48:12.563Z,36.90
2019-04-14T21:50:41.143Z,36.53
2019-04-14T21:53:09.569Z,39.33
2019-04-14T21:55:37.997Z,39.17
2019-04-14T21:58:13.721Z,37.53
2019-04-14T22:01:13.537Z,37.90
2019-04-14T22:03:49.383Z,36.80
2019-04-14T22:06:25.378Z,37.67
2019-04-14T22:08:56.538Z,37.17
2019-04-14T22:11:26.611Z,39.03
2019-04-14T22:13:55.114Z,38.17
2019-04-14T22:16:23.560Z,38.57
2019-04-14T22:18:52.029Z,36.80
2019-04-14T22:21:20.510Z,37.23
2019-04-14T22:24:00.496Z,35.10
2019-04-14T22:26:25.937Z,37.93
2019-04-14T22:28:49.365Z,36.63
2019-04-14T22:31:17.830Z,37.23
2019-04-14T22:33:46.258Z,36.97
2019-04-14T22:36:14.678Z,36.53
2019-04-14T22:38:43.307Z,37.43
2019-04-14T22:41:11.743Z,36.50
2019-04-14T22:43:40.178Z,36.37
2019-04-14T22:46:08.650Z,36.20
2019-04-14T22:48:39.405Z,37.20
2019-04-14T22:51:07.617Z,37.13
2019-04-14T22:53:36.216Z,36.73
2019-04-14T22:56:04.805Z,39.03
2019-04-14T22:58:33.267Z,36.90
2019-04-14T23:01:21.775Z,37.33
2019-04-14T23:03:54.440Z,37.83
2019-04-14T23:06:40.544Z,37.50
2019-04-14T23:09:26.856Z,37.60
2019-04-14T23:11:59.787Z,33.80
2019-04-14T23:14:29.840Z,35.77
2019-04-14T23:17:05.989Z,34.60
2019-04-14T23:19:38.593Z,34.60
2019-04-14T23:22:19.796Z,37.17
2019-04-14T23:24:48.689Z,37.57
2019-04-14T23:27:17.098Z,35.63
2019-04-14T23:29:45.677Z,35.10
2019-04-14T23:32:14.100Z,37.07
2019-04-14T23:34:42.522Z,34.80
2019-04-14T23:37:11.088Z,36.73
2019-04-14T23:39:39.497Z,36.50
2019-04-14T23:42:07.918Z,34.90
2019-04-14T23:44:36.658Z,37.07
2019-04-14T23:47:05.070Z,36.60
2019-04-14T23:49:33.550Z,34.93
2019-04-14T23:52:02.310Z,35.93
2019-04-14T23:54:30.800Z,35.93
2019-04-14T23:57:05.373Z,34.30
2019-04-14T23:59:29.402Z,35.50
